Time;durP1;ratioP1;P1;durP2;ratioP2;P2;SDS_P1;SDS_P2;PMS_P1;PMS_P2;Temp;Humidity;BMP_temperature;BMP_pressure;BME280_temperature;BME280_humidity;BME280_pressure;Samples;Min_cycle;Max_cycle;Signal;HPM_P1;HPM_P2
2022/04/07 00:00:47;;;;;;;0.40;0.40;;;;;;;;;;5074479;28;20062;-70
2022/04/07 00:03:13;;;;;;;1.42;0.52;;;;;;;;;;5090896;28;20051;-69
2022/04/07 00:05:39;;;;;;;1.77;1.25;;;;;;;;;;5075013;28;20074;-69
2022/04/07 00:08:05;;;;;;;1.25;1.00;;;;;;;;;;5074622;28;20533;-69
2022/04/07 00:10:32;;;;;;;1.70;0.95;;;;;;;;;;5092995;28;20081;-69
2022/04/07 00:12:58;;;;;;;1.30;1.20;;;;;;;;;;5091928;28;20119;-69
2022/04/07 00:15:24;;;;;;;1.60;1.00;;;;;;;;;;5092261;28;20032;-69
2022/04/07 00:17:50;;;;;;;1.10;1.00;;;;;;;;;;5073384;28;20035;-69
2022/04/07 00:20:16;;;;;;;2.08;1.20;;;;;;;;;;5092388;28;20028;-69
2022/04/07 00:22:42;;;;;;;3.13;1.02;;;;;;;;;;5089958;28;20043;-69
2022/04/07 00:25:09;;;;;;;0.93;0.93;;;;;;;;;;5073823;28;20105;-69
2022/04/07 00:27:35;;;;;;;1.55;0.75;;;;;;;;;;5074424;28;20028;-69
2022/04/07 00:30:03;;;;;;;1.13;0.80;;;;;;;;;;5091616;28;20473;-69
2022/04/07 00:32:29;;;;;;;1.58;0.80;;;;;;;;;;5091199;28;20032;-69
2022/04/07 00:34:56;;;;;;;2.38;1.00;;;;;;;;;;5092240;28;20031;-70
2022/04/07 00:37:25;;;;;;;1.98;1.00;;;;;;;;;;5092256;28;20028;-69
2022/04/07 00:39:51;;;;;;;2.25;0.82;;;;;;;;;;5074084;28;20360;-69
2022/04/07 00:42:18;;;;;;;1.58;1.02;;;;;;;;;;5091609;28;20123;-69
2022/04/07 00:44:44;;;;;;;2.05;0.70;;;;;;;;;;5092064;28;20109;-69
2022/04/07 00:47:13;;;;;;;3.00;0.88;;;;;;;;;;5072820;28;20032;-71
2022/04/07 00:49:39;;;;;;;1.77;1.10;;;;;;;;;;5091379;28;20112;-69
2022/04/07 00:52:07;;;;;;;0.70;0.70;;;;;;;;;;5091718;28;20036;-69
2022/04/07 00:54:33;;;;;;;1.95;0.90;;;;;;;;;;5091904;28;20119;-69
2022/04/07 00:57:00;;;;;;;1.30;1.20;;;;;;;;;;5089579;28;20024;-69
2022/04/07 00:59:28;;;;;;;1.95;1.10;;;;;;;;;;5091471;28;20028;-69
2022/04/07 01:01:54;;;;;;;1.45;0.88;;;;;;;;;;5073775;28;20366;-69
2022/04/07 01:04:21;;;;;;;3.50;1.10;;;;;;;;;;5072589;28;20476;-69
2022/04/07 01:06:48;;;;;;;1.20;1.10;;;;;;;;;;5091933;28;20050;-69
2022/04/07 01:09:15;;;;;;;2.25;1.00;;;;;;;;;;5091724;28;20020;-69
2022/04/07 01:11:43;;;;;;;0.93;0.85;;;;;;;;;;5091967;28;20104;-70
2022/04/07 01:14:09;;;;;;;1.02;0.90;;;;;;;;;;5091988;28;20030;-69
2022/04/07 01:16:36;;;;;;;2.58;0.90;;;;;;;;;;5092185;28;20103;-69
2022/04/07 01:19:02;;;;;;;8.75;1.05;;;;;;;;;;5090452;28;20032;-69
2022/04/07 01:21:31;;;;;;;1.20;1.00;;;;;;;;;;5090716;28;20060;-69
2022/04/07 01:24:07;;;;;;;1.48;1.10;;;;;;;;;;5090786;28;20051;-69
2022/04/07 01:26:37;;;;;;;1.08;0.85;;;;;;;;;;5073135;28;20059;-69
2022/04/07 01:29:04;;;;;;;1.80;1.17;;;;;;;;;;5091419;28;20035;-69
2022/04/07 01:31:31;;;;;;;1.27;1.13;;;;;;;;;;5057522;28;20390;-69
2022/04/07 01:33:58;;;;;;;1.08;1.00;;;;;;;;;;5082174;28;20036;-70
2022/04/07 01:36:25;;;;;;;2.42;1.15;;;;;;;;;;5090965;28;20028;-69
2022/04/07 01:38:51;;;;;;;3.10;1.25;;;;;;;;;;5090430;28;20023;-68
2022/04/07 01:41:19;;;;;;;1.67;1.17;;;;;;;;;;5072306;28;20024;-69
2022/04/07 01:43:46;;;;;;;1.25;1.00;;;;;;;;;;5072757;28;20024;-69
2022/04/07 01:46:12;;;;;;;2.03;1.15;;;;;;;;;;5090582;28;20543;-68
2022/04/07 01:48:38;;;;;;;1.00;0.90;;;;;;;;;;5090104;28;20374;-70
2022/04/07 01:51:04;;;;;;;1.27;1.10;;;;;;;;;;5090594;28;20183;-70
2022/04/07 01:53:31;;;;;;;0.77;0.77;;;;;;;;;;5071980;28;20039;-69
2022/04/07 01:55:57;;;;;;;0.70;0.70;;;;;;;;;;5090936;28;20035;-70
2022/04/07 01:58:23;;;;;;;4.50;0.70;;;;;;;;;;5090645;28;20020;-69
2022/04/07 02:00:49;;;;;;;0.93;0.82;;;;;;;;;;5090790;28;20378;-69
2022/04/07 02:03:15;;;;;;;0.63;0.57;;;;;;;;;;5088933;28;20635;-69
2022/04/07 02:05:41;;;;;;;0.40;0.40;;;;;;;;;;5090730;28;20024;-69
2022/04/07 02:08:07;;;;;;;2.30;1.00;;;;;;;;;;5090147;28;20032;-69
2022/04/07 02:10:33;;;;;;;1.10;1.00;;;;;;;;;;5090763;28;20453;-69
2022/04/07 02:12:59;;;;;;;1.98;1.20;;;;;;;;;;5089842;28;20119;-69
2022/04/07 02:15:26;;;;;;;1.20;0.95;;;;;;;;;;5090531;28;20067;-69
2022/04/07 02:17:52;;;;;;;0.57;0.57;;;;;;;;;;5072524;28;20311;-69
2022/04/07 02:20:19;;;;;;;1.60;0.95;;;;;;;;;;5089052;28;20028;-70
2022/04/07 02:22:45;;;;;;;2.53;1.00;;;;;;;;;;5090234;28;20354;-70
2022/04/07 02:25:11;;;;;;;0.85;0.77;;;;;;;;;;5090555;28;20032;-69
2022/04/07 02:27:38;;;;;;;0.77;0.70;;;;;;;;;;5090179;28;20122;-69
2022/04/07 02:30:08;;;;;;;2.75;0.60;;;;;;;;;;5090221;28;20118;-69
2022/04/07 02:32:34;;;;;;;;;;;;;;;;;;5072224;28;20477;-69
2022/04/07 02:35:00;;;;;;;1.05;0.98;;;;;;;;;;5070714;28;19908;-69
2022/04/07 02:37:26;;;;;;;0.43;0.43;;;;;;;;;;5090333;28;20020;-69
2022/04/07 02:39:53;;;;;;;0.40;0.40;;;;;;;;;;5083195;28;20394;-70
2022/04/07 02:42:22;;;;;;;0.85;0.60;;;;;;;;;;5088021;28;20051;-69
2022/04/07 02:44:48;;;;;;;0.60;0.60;;;;;;;;;;5089203;28;20028;-69
2022/04/07 02:47:14;;;;;;;0.70;0.70;;;;;;;;;;5055796;28;20542;-70
2022/04/07 02:49:41;;;;;;;1.40;0.82;;;;;;;;;;5080251;28;20044;-70
2022/04/07 02:52:08;;;;;;;1.27;0.50;;;;;;;;;;5089205;28;20472;-69
2022/04/07 02:54:34;;;;;;;0.55;0.50;;;;;;;;;;5071802;28;20527;-69
2022/04/07 02:57:01;;;;;;;0.47;0.40;;;;;;;;;;5090172;28;20388;-70
2022/04/07 02:59:27;;;;;;;0.40;0.40;;;;;;;;;;5071546;28;20070;-70
2022/04/07 03:01:53;;;;;;;0.45;0.45;;;;;;;;;;5089009;28;20108;-70
2022/04/07 03:04:21;;;;;;;0.45;0.45;;;;;;;;;;5088907;28;20032;-69
2022/04/07 03:06:47;;;;;;;0.38;0.38;;;;;;;;;;5089756;28;20081;-69
2022/04/07 03:09:13;;;;;;;0.38;0.38;;;;;;;;;;5090403;28;20028;-70
2022/04/07 03:11:39;;;;;;;0.70;0.40;;;;;;;;;;5089537;28;20038;-69
2022/04/07 03:14:05;;;;;;;0.85;0.60;;;;;;;;;;5091742;28;20102;-70
2022/04/07 03:16:31;;;;;;;0.40;0.40;;;;;;;;;;5075314;28;20016;-70
2022/04/07 03:18:57;;;;;;;2.28;0.60;;;;;;;;;;5080238;28;20038;-69
2022/04/07 03:21:23;;;;;;;1.08;0.40;;;;;;;;;;5095781;28;20369;-69
2022/04/07 03:23:49;;;;;;;0.52;0.52;;;;;;;;;;5095966;28;20111;-69
2022/04/07 03:26:15;;;;;;;0.40;0.40;;;;;;;;;;5095969;28;20105;-69
2022/04/07 03:28:41;;;;;;;0.68;0.50;;;;;;;;;;5096115;28;20074;-69
2022/04/07 03:31:07;;;;;;;0.60;0.60;;;;;;;;;;5077369;28;20044;-70
2022/04/07 03:33:44;;;;;;;0.50;0.50;;;;;;;;;;5095956;28;20160;-69
2022/04/07 03:36:10;;;;;;;0.30;0.30;;;;;;;;;;5094455;28;20051;-69
2022/04/07 03:38:37;;;;;;;0.30;0.30;;;;;;;;;;5078001;28;20024;-69
2022/04/07 03:41:05;;;;;;;0.25;0.25;;;;;;;;;;5077678;28;20031;-69
2022/04/07 03:43:31;;;;;;;2.83;0.43;;;;;;;;;;5077159;28;20028;-70
2022/04/07 03:45:57;;;;;;;0.47;0.47;;;;;;;;;;5095800;28;20024;-70
2022/04/07 03:48:23;;;;;;;1.65;0.60;;;;;;;;;;5094666;28;20069;-69
2022/04/07 03:50:49;;;;;;;1.75;0.50;;;;;;;;;;5094428;28;20500;-69
2022/04/07 03:53:15;;;;;;;0.30;0.30;;;;;;;;;;5095526;28;20024;-69
2022/04/07 03:55:41;;;;;;;0.40;0.40;;;;;;;;;;5095808;28;20498;-69
2022/04/07 03:58:07;;;;;;;0.52;0.40;;;;;;;;;;5095330;28;20069;-70
2022/04/07 04:00:34;;;;;;;1.55;0.50;;;;;;;;;;5095548;28;20032;-69
2022/04/07 04:03:00;;;;;;;4.25;0.80;;;;;;;;;;5077268;28;20075;-69
2022/04/07 04:05:26;;;;;;;0.50;0.50;;;;;;;;;;5077601;28;20082;-69
2022/04/07 04:07:52;;;;;;;1.17;0.50;;;;;;;;;;5095820;28;20087;-69
2022/04/07 04:10:18;;;;;;;0.40;0.40;;;;;;;;;;5095971;28;20024;-69
2022/04/07 04:12:44;;;;;;;0.32;0.32;;;;;;;;;;5095635;28;20473;-69
2022/04/07 04:15:10;;;;;;;0.38;0.38;;;;;;;;;;5096052;28;20016;-69
2022/04/07 04:17:36;;;;;;;0.95;0.50;;;;;;;;;;5096286;28;20016;-71
2022/04/07 04:20:02;;;;;;;0.43;0.43;;;;;;;;;;5076589;28;20388;-70
2022/04/07 04:22:28;;;;;;;0.93;0.43;;;;;;;;;;5095658;28;20473;-70
2022/04/07 04:24:55;;;;;;;0.22;0.22;;;;;;;;;;5091130;28;20382;-70
2022/04/07 04:27:21;;;;;;;0.93;0.60;;;;;;;;;;5071868;28;20043;-70
2022/04/07 04:29:47;;;;;;;0.50;0.50;;;;;;;;;;5054022;28;20044;-70
2022/04/07 04:32:13;;;;;;;0.73;0.63;;;;;;;;;;5071035;28;20056;-70
2022/04/07 04:34:39;;;;;;;0.38;0.38;;;;;;;;;;5073801;28;20488;-70
2022/04/07 04:37:05;;;;;;;0.90;0.80;;;;;;;;;;5092546;28;20020;-70
2022/04/07 04:39:31;;;;;;;0.38;0.38;;;;;;;;;;5092382;28;20111;-70
2022/04/07 04:41:57;;;;;;;0.30;0.30;;;;;;;;;;5091855;28;20036;-71
2022/04/07 04:44:23;;;;;;;0.40;0.40;;;;;;;;;;5093077;28;20457;-70
2022/04/07 04:46:49;;;;;;;0.45;0.45;;;;;;;;;;5092489;28;20062;-70
2022/04/07 04:49:15;;;;;;;0.40;0.40;;;;;;;;;;5092147;28;20043;-70
2022/04/07 04:51:41;;;;;;;0.70;0.68;;;;;;;;;;5091069;28;20035;-70
2022/04/07 04:54:07;;;;;;;0.40;0.40;;;;;;;;;;5092383;28;20462;-71
2022/04/07 04:56:33;;;;;;;0.80;0.50;;;;;;;;;;5091339;28;20090;-71
2022/04/07 04:58:59;;;;;;;0.88;0.88;;;;;;;;;;5090931;28;20032;-70
2022/04/07 05:01:25;;;;;;;0.65;0.63;;;;;;;;;;5091429;28;20167;-70
2022/04/07 05:03:51;;;;;;;2.92;0.60;;;;;;;;;;5092469;28;20035;-70
2022/04/07 05:06:17;;;;;;;1.17;0.57;;;;;;;;;;5091751;28;20028;-71
2022/04/07 05:08:43;;;;;;;0.35;0.35;;;;;;;;;;5092246;28;20165;-70
2022/04/07 05:11:10;;;;;;;0.40;0.40;;;;;;;;;;5091533;28;20036;-70
2022/04/07 05:13:36;;;;;;;1.10;0.40;;;;;;;;;;5092423;28;20032;-70
2022/04/07 05:16:02;;;;;;;0.47;0.47;;;;;;;;;;5091500;28;20047;-70
2022/04/07 05:18:28;;;;;;;4.53;0.65;;;;;;;;;;5092058;28;20432;-70
2022/04/07 05:20:54;;;;;;;0.55;0.55;;;;;;;;;;5091397;28;20035;-70
2022/04/07 05:23:20;;;;;;;0.35;0.35;;;;;;;;;;5091967;28;20039;-71
2022/04/07 05:25:46;;;;;;;0.57;0.55;;;;;;;;;;5091876;28;20027;-70
2022/04/07 05:28:12;;;;;;;0.50;0.50;;;;;;;;;;5091847;28;20123;-70
2022/04/07 05:30:38;;;;;;;0.30;0.30;;;;;;;;;;5091881;28;20028;-70
2022/04/07 05:33:04;;;;;;;0.75;0.70;;;;;;;;;;5088660;28;20422;-70
2022/04/07 05:35:30;;;;;;;0.95;0.50;;;;;;;;;;5084671;28;20040;-70
2022/04/07 05:37:59;;;;;;;0.45;0.45;;;;;;;;;;5091424;28;20031;-71
2022/04/07 05:40:26;;;;;;;0.30;0.30;;;;;;;;;;5092043;28;20036;-71
2022/04/07 05:42:52;;;;;;;0.40;0.40;;;;;;;;;;5091584;28;20067;-70
2022/04/07 05:45:18;;;;;;;0.38;0.38;;;;;;;;;;5091764;28;20028;-70
2022/04/07 05:47:44;;;;;;;0.52;0.52;;;;;;;;;;5090601;28;20642;-71
2022/04/07 05:50:11;;;;;;;0.80;0.50;;;;;;;;;;5091031;28;20035;-70
2022/04/07 05:52:37;;;;;;;1.33;0.43;;;;;;;;;;5092258;28;20031;-70
2022/04/07 05:55:04;;;;;;;0.30;0.30;;;;;;;;;;5093036;28;20050;-71
2022/04/07 05:57:30;;;;;;;1.48;0.35;;;;;;;;;;5092563;28;20032;-70
2022/04/07 06:00:02;;;;;;;1.40;1.10;;;;;;;;;;5074343;28;20016;-71
2022/04/07 06:02:28;;;;;;;0.20;0.20;;;;;;;;;;5073833;28;20058;-70
2022/04/07 06:04:54;;;;;;;0.73;0.40;;;;;;;;;;5074212;28;20099;-70
2022/04/07 06:07:20;;;;;;;0.32;0.32;;;;;;;;;;5090500;28;20127;-71
2022/04/07 06:09:46;;;;;;;0.60;0.60;;;;;;;;;;5091240;28;20050;-70
2022/04/07 06:12:12;;;;;;;1.77;0.77;;;;;;;;;;5090540;28;20032;-70
2022/04/07 06:14:38;;;;;;;0.43;0.43;;;;;;;;;;5091119;28;20130;-70
2022/04/07 06:17:04;;;;;;;0.40;0.40;;;;;;;;;;5090724;28;20055;-71
2022/04/07 06:19:30;;;;;;;0.45;0.40;;;;;;;;;;5090714;28;20507;-70
2022/04/07 06:21:56;;;;;;;0.52;0.52;;;;;;;;;;5089330;28;20028;-71
2022/04/07 06:24:23;;;;;;;0.35;0.35;;;;;;;;;;5091002;28;20032;-71
2022/04/07 06:26:49;;;;;;;0.38;0.32;;;;;;;;;;5090704;28;20024;-70
2022/04/07 06:29:16;;;;;;;0.50;0.50;;;;;;;;;;5072885;28;20055;-71
2022/04/07 06:31:42;;;;;;;0.40;0.40;;;;;;;;;;5090173;28;20119;-71
2022/04/07 06:34:08;;;;;;;0.38;0.38;;;;;;;;;;5091026;28;20020;-70
2022/04/07 06:36:34;;;;;;;0.38;0.38;;;;;;;;;;5090636;28;20106;-70
2022/04/07 06:39:00;;;;;;;1.58;0.70;;;;;;;;;;5091290;28;20024;-70
2022/04/07 06:41:26;;;;;;;0.30;0.30;;;;;;;;;;5090123;28;20104;-70
2022/04/07 06:43:52;;;;;;;0.60;0.60;;;;;;;;;;5081929;28;20099;-71
2022/04/07 06:46:18;;;;;;;1.38;0.60;;;;;;;;;;5077849;28;20024;-71
2022/04/07 06:48:44;;;;;;;0.40;0.40;;;;;;;;;;5089739;28;20039;-70
2022/04/07 06:51:10;;;;;;;0.50;0.40;;;;;;;;;;5089343;28;20032;-70
2022/04/07 06:53:36;;;;;;;2.10;0.47;;;;;;;;;;5090682;28;20103;-70
2022/04/07 06:56:02;;;;;;;3.83;0.60;;;;;;;;;;5090516;28;20028;-71
2022/04/07 06:58:28;;;;;;;0.47;0.47;;;;;;;;;;5090518;28;20048;-71
2022/04/07 07:00:54;;;;;;;0.60;0.60;;;;;;;;;;5090151;28;20063;-70
2022/04/07 07:03:20;;;;;;;0.40;0.40;;;;;;;;;;5089568;28;20024;-70
2022/04/07 07:05:46;;;;;;;1.30;1.20;;;;;;;;;;5089655;28;20020;-70
2022/04/07 07:08:20;;;;;;;0.50;0.50;;;;;;;;;;5090914;28;20114;-70
2022/04/07 07:10:47;;;;;;;0.30;0.30;;;;;;;;;;5090597;28;20376;-70
2022/04/07 07:13:14;;;;;;;0.65;0.65;;;;;;;;;;5088746;28;20089;-70
2022/04/07 07:15:40;;;;;;;0.93;0.63;;;;;;;;;;5090453;28;20507;-70
2022/04/07 07:18:07;;;;;;;0.45;0.40;;;;;;;;;;5088994;28;20031;-71
2022/04/07 07:20:33;;;;;;;0.40;0.40;;;;;;;;;;5089837;28;20126;-70
2022/04/07 07:22:59;;;;;;;0.43;0.40;;;;;;;;;;5089549;28;20035;-71
2022/04/07 07:25:30;;;;;;;0.45;0.45;;;;;;;;;;5091378;28;20052;-70
2022/04/07 07:27:57;;;;;;;0.20;0.20;;;;;;;;;;5089292;28;20464;-70
2022/04/07 07:30:23;;;;;;;1.85;0.52;;;;;;;;;;5090322;28;20044;-70
2022/04/07 07:32:51;;;;;;;0.50;0.50;;;;;;;;;;5071754;28;20051;-70
2022/04/07 07:35:17;;;;;;;0.55;0.50;;;;;;;;;;5090522;28;20035;-70
2022/04/07 07:37:53;;;;;;;1.40;0.80;;;;;;;;;;5089346;28;20029;-70
2022/04/07 07:40:21;;;;;;;0.30;0.30;;;;;;;;;;5089950;28;20046;-70
2022/04/07 07:42:47;;;;;;;0.52;0.52;;;;;;;;;;5089947;28;20020;-70
2022/04/07 07:45:13;;;;;;;0.40;0.40;;;;;;;;;;5089909;28;20020;-70
2022/04/07 07:47:39;;;;;;;0.20;0.20;;;;;;;;;;5089970;28;20081;-70
2022/04/07 07:50:06;;;;;;;1.13;0.60;;;;;;;;;;5071898;28;20359;-70
2022/04/07 07:52:32;;;;;;;0.57;0.40;;;;;;;;;;5069977;28;20545;-70
2022/04/07 07:54:58;;;;;;;2.40;0.60;;;;;;;;;;5089742;28;20108;-71
2022/04/07 07:57:24;;;;;;;4.50;0.57;;;;;;;;;;5071999;28;20024;-70
2022/04/07 07:59:51;;;;;;;0.70;0.35;;;;;;;;;;5091776;28;20100;-70
2022/04/07 08:02:17;;;;;;;0.30;0.30;;;;;;;;;;5075718;28;20032;-70
2022/04/07 08:04:43;;;;;;;0.30;0.30;;;;;;;;;;5094281;28;20020;-70
2022/04/07 08:07:09;;;;;;;0.43;0.43;;;;;;;;;;5093710;28;20028;-70
2022/04/07 08:09:35;;;;;;;1.00;0.50;;;;;;;;;;5093561;28;20043;-70
2022/04/07 08:12:02;;;;;;;0.50;0.50;;;;;;;;;;5075587;28;20034;-70
2022/04/07 08:14:29;;;;;;;0.65;0.40;;;;;;;;;;5094241;28;20028;-70
2022/04/07 08:16:55;;;;;;;0.30;0.30;;;;;;;;;;5075899;28;20039;-70
2022/04/07 08:19:21;;;;;;;0.43;0.43;;;;;;;;;;5094810;28;20016;-70
2022/04/07 08:21:47;;;;;;;0.70;0.70;;;;;;;;;;5093424;28;20028;-71
2022/04/07 08:24:16;;;;;;;0.38;0.30;;;;;;;;;;5094001;28;20496;-70
2022/04/07 08:26:42;;;;;;;0.47;0.47;;;;;;;;;;5075547;28;20024;-70
2022/04/07 08:29:08;;;;;;;0.93;0.50;;;;;;;;;;5082088;28;20032;-70
2022/04/07 08:31:34;;;;;;;0.70;0.65;;;;;;;;;;5070889;28;20123;-70
2022/04/07 08:34:01;;;;;;;5.88;0.82;;;;;;;;;;5071746;28;20017;-70
2022/04/07 08:36:27;;;;;;;1.92;0.50;;;;;;;;;;5072802;28;20021;-71
2022/04/07 08:38:53;;;;;;;0.40;0.40;;;;;;;;;;5093154;28;20055;-70
2022/04/07 08:41:19;;;;;;;9.55;0.68;;;;;;;;;;5093432;28;20431;-70
2022/04/07 08:43:45;;;;;;;0.35;0.35;;;;;;;;;;5092703;28;20149;-70
2022/04/07 08:46:13;;;;;;;0.45;0.45;;;;;;;;;;5092949;28;20173;-70
2022/04/07 08:48:42;;;;;;;0.30;0.30;;;;;;;;;;5074631;28;20032;-70
2022/04/07 08:51:09;;;;;;;0.40;0.40;;;;;;;;;;5093740;28;20028;-70
2022/04/07 08:53:36;;;;;;;0.20;0.20;;;;;;;;;;5092386;28;20048;-70
2022/04/07 08:56:02;;;;;;;0.57;0.57;;;;;;;;;;5092941;28;20058;-71
2022/04/07 08:58:29;;;;;;;0.32;0.32;;;;;;;;;;5092523;28;20026;-70
2022/04/07 09:00:55;;;;;;;0.20;0.20;;;;;;;;;;5091756;28;20024;-70
2022/04/07 09:03:21;;;;;;;0.40;0.40;;;;;;;;;;5072133;28;20438;-70
2022/04/07 09:06:00;;;;;;;0.30;0.30;;;;;;;;;;5072313;28;20032;-70
2022/04/07 09:08:30;;;;;;;1.55;0.85;;;;;;;;;;5086922;28;20043;-70
2022/04/07 09:10:56;;;;;;;0.57;0.50;;;;;;;;;;5074116;28;20477;-70
2022/04/07 09:13:23;;;;;;;0.30;0.30;;;;;;;;;;5074853;28;20032;-70
2022/04/07 09:15:50;;;;;;;0.32;0.32;;;;;;;;;;5093130;28;20046;-70
2022/04/07 09:18:26;;;;;;;0.30;0.30;;;;;;;;;;5091845;28;20030;-70
2022/04/07 09:20:52;;;;;;;0.60;0.50;;;;;;;;;;5092839;28;20027;-70
2022/04/07 09:23:18;;;;;;;0.47;0.35;;;;;;;;;;5091631;28;20060;-70
2022/04/07 09:25:47;;;;;;;1.00;0.45;;;;;;;;;;5091936;28;20070;-70
2022/04/07 09:28:13;;;;;;;0.40;0.40;;;;;;;;;;5092061;28;20031;-71
2022/04/07 09:30:41;;;;;;;0.60;0.60;;;;;;;;;;5091020;28;20489;-71
2022/04/07 09:33:19;;;;;;;1.05;0.40;;;;;;;;;;5090845;28;20048;-70
2022/04/07 09:36:02;;;;;;;1.13;0.50;;;;;;;;;;5090755;28;20063;-70
2022/04/07 09:38:30;;;;;;;0.40;0.40;;;;;;;;;;5081235;28;20036;-70
2022/04/07 09:41:02;;;;;;;0.40;0.40;;;;;;;;;;5091069;28;20035;-70
2022/04/07 09:43:28;;;;;;;0.40;0.40;;;;;;;;;;5090522;28;20028;-70
2022/04/07 09:45:55;;;;;;;1.15;0.50;;;;;;;;;;5090747;28;20030;-70
2022/04/07 09:48:24;;;;;;;0.28;0.28;;;;;;;;;;5090816;28;20111;-70
2022/04/07 09:51:03;;;;;;;0.70;0.30;;;;;;;;;;5090942;28;20024;-70
2022/04/07 09:53:35;;;;;;;0.40;0.40;;;;;;;;;;5089298;28;20048;-71
2022/04/07 09:56:01;;;;;;;0.40;0.40;;;;;;;;;;5091409;28;20423;-70
2022/04/07 09:58:28;;;;;;;0.20;0.20;;;;;;;;;;5090962;28;20024;-70
2022/04/07 10:00:56;;;;;;;0.38;0.38;;;;;;;;;;5091137;28;20028;-70
2022/04/07 10:03:22;;;;;;;0.40;0.40;;;;;;;;;;5090813;28;20035;-70
2022/04/07 10:05:49;;;;;;;0.28;0.28;;;;;;;;;;5090875;28;20016;-70
2022/04/07 10:08:18;;;;;;;0.40;0.40;;;;;;;;;;5089318;28;20118;-70
2022/04/07 10:10:44;;;;;;;0.30;0.30;;;;;;;;;;5090865;28;20024;-70
2022/04/07 10:13:11;;;;;;;0.55;0.55;;;;;;;;;;5090444;28;20434;-70
2022/04/07 10:15:37;;;;;;;0.30;0.30;;;;;;;;;;5090812;28;20027;-71
2022/04/07 10:18:06;;;;;;;2.40;0.47;;;;;;;;;;5090535;28;20016;-70
2022/04/07 10:20:33;;;;;;;0.40;0.40;;;;;;;;;;5090575;28;20107;-70
2022/04/07 10:23:15;;;;;;;0.82;0.38;;;;;;;;;;5088127;28;20197;-70
2022/04/07 10:25:43;;;;;;;0.30;0.30;;;;;;;;;;5090381;28;20055;-70
2022/04/07 10:28:10;;;;;;;0.28;0.28;;;;;;;;;;5090525;28;20097;-70
2022/04/07 10:30:48;;;;;;;0.30;0.30;;;;;;;;;;5090840;28;20032;-70
2022/04/07 10:33:33;;;;;;;0.40;0.40;;;;;;;;;;5089387;28;20038;-70
2022/04/07 10:36:00;;;;;;;0.85;0.40;;;;;;;;;;5090718;28;20024;-70
2022/04/07 10:38:39;;;;;;;2.83;0.45;;;;;;;;;;5089654;28;20032;-70
2022/04/07 10:41:05;;;;;;;0.30;0.30;;;;;;;;;;5090443;28;20106;-70
2022/04/07 10:43:31;;;;;;;0.30;0.30;;;;;;;;;;5088805;28;20553;-70
2022/04/07 10:46:06;;;;;;;0.25;0.25;;;;;;;;;;5088423;28;20688;-70
2022/04/07 10:48:45;;;;;;;1.00;0.35;;;;;;;;;;5069383;28;20071;-70
2022/04/07 10:51:13;;;;;;;0.30;0.30;;;;;;;;;;5070045;28;20055;-70
2022/04/07 10:53:40;;;;;;;0.40;0.40;;;;;;;;;;5076005;28;20106;-70
2022/04/07 10:56:11;;;;;;;0.20;0.20;;;;;;;;;;5089524;28;20051;-71
2022/04/07 10:58:45;;;;;;;0.30;0.30;;;;;;;;;;5090169;28;20103;-70
2022/04/07 11:01:32;;;;;;;0.28;0.28;;;;;;;;;;5090977;28;20031;-70
2022/04/07 11:04:20;;;;;;;0.50;0.50;;;;;;;;;;5074128;28;20028;-70
2022/04/07 11:07:05;;;;;;;0.40;0.40;;;;;;;;;;5092594;28;20023;-70
2022/04/07 11:09:43;;;;;;;1.25;1.10;;;;;;;;;;5089729;28;20136;-70
2022/04/07 11:12:09;;;;;;;0.50;0.50;;;;;;;;;;5089711;28;20024;-69
2022/04/07 11:14:36;;;;;;;0.30;0.30;;;;;;;;;;5090213;28;20036;-70
2022/04/07 11:17:02;;;;;;;0.43;0.40;;;;;;;;;;5089789;28;20035;-70
2022/04/07 11:19:38;;;;;;;0.30;0.30;;;;;;;;;;5087756;28;20362;-70
2022/04/07 11:22:09;;;;;;;0.20;0.20;;;;;;;;;;5070854;28;20454;-70
2022/04/07 11:24:42;;;;;;;0.40;0.40;;;;;;;;;;5088891;28;20485;-70
2022/04/07 11:27:26;;;;;;;0.30;0.30;;;;;;;;;;5089253;28;20104;-70
2022/04/07 11:30:03;;;;;;;0.30;0.30;;;;;;;;;;5089308;28;20143;-70
2022/04/07 11:32:30;;;;;;;0.30;0.30;;;;;;;;;;5087242;28;20024;-69
2022/04/07 11:34:58;;;;;;;0.40;0.40;;;;;;;;;;5092067;28;20024;-71
2022/04/07 11:37:26;;;;;;;1.88;0.32;;;;;;;;;;5093411;28;20031;-70
2022/04/07 11:39:53;;;;;;;0.30;0.30;;;;;;;;;;5092904;28;20119;-70
2022/04/07 11:42:21;;;;;;;4.40;0.25;;;;;;;;;;5092625;28;20540;-71
2022/04/07 11:44:47;;;;;;;0.20;0.20;;;;;;;;;;5094180;28;20047;-70
2022/04/07 11:47:28;;;;;;;0.40;0.40;;;;;;;;;;5075048;28;20062;-70
2022/04/07 11:49:54;;;;;;;0.52;0.50;;;;;;;;;;5093299;28;20354;-70
2022/04/07 11:52:28;;;;;;;0.63;0.40;;;;;;;;;;5092823;28;20032;-70
2022/04/07 11:54:54;;;;;;;0.30;0.30;;;;;;;;;;5092296;28;20032;-70
2022/04/07 11:57:22;;;;;;;0.20;0.20;;;;;;;;;;5075202;28;20488;-70
2022/04/07 11:59:48;;;;;;;0.40;0.40;;;;;;;;;;5093168;28;20023;-70
2022/04/07 12:02:20;;;;;;;1.65;0.38;;;;;;;;;;5074228;28;20020;-70
2022/04/07 12:04:46;;;;;;;0.20;0.20;;;;;;;;;;5093346;28;20017;-70
2022/04/07 12:07:12;;;;;;;0.30;0.30;;;;;;;;;;5092677;28;20031;-70
2022/04/07 12:09:38;;;;;;;0.30;0.30;;;;;;;;;;5070463;28;20029;-70
2022/04/07 12:12:05;;;;;;;0.32;0.32;;;;;;;;;;5072772;28;20032;-70
2022/04/07 12:14:31;;;;;;;0.20;0.20;;;;;;;;;;5073280;28;20044;-70
2022/04/07 12:16:57;;;;;;;6.03;0.52;;;;;;;;;;5072788;28;20033;-71
2022/04/07 12:19:23;;;;;;;1.55;0.40;;;;;;;;;;5073087;28;20354;-70
2022/04/07 12:21:56;;;;;;;0.43;0.30;;;;;;;;;;5073888;28;20104;-70
2022/04/07 12:24:26;;;;;;;10.43;0.70;;;;;;;;;;5080065;28;20032;-70
2022/04/07 12:26:53;;;;;;;0.30;0.30;;;;;;;;;;5093527;28;20028;-70
2022/04/07 12:29:24;;;;;;;6.22;0.50;;;;;;;;;;5091938;28;20028;-70
2022/04/07 12:32:09;;;;;;;0.28;0.28;;;;;;;;;;5074089;28;20040;-70
2022/04/07 12:34:50;;;;;;;0.85;0.60;;;;;;;;;;5092526;28;20024;-70
2022/04/07 12:37:29;;;;;;;0.32;0.32;;;;;;;;;;5092699;28;20032;-70
2022/04/07 12:39:56;;;;;;;0.55;0.35;;;;;;;;;;5090711;28;20434;-71
2022/04/07 12:42:22;;;;;;;0.30;0.30;;;;;;;;;;5092082;28;20465;-71
2022/04/07 12:44:49;;;;;;;0.40;0.40;;;;;;;;;;5073129;28;20028;-70
2022/04/07 12:47:15;;;;;;;0.30;0.30;;;;;;;;;;5086615;28;20119;-70
2022/04/07 12:49:41;;;;;;;0.20;0.20;;;;;;;;;;5092065;28;20448;-70
2022/04/07 12:52:08;;;;;;;0.28;0.28;;;;;;;;;;5093452;28;20547;-70
2022/04/07 12:57:41;;;;;;;0.55;0.40;;;;;;;;;;5094784;28;20077;-70
2022/04/07 13:00:10;;;;;;;0.30;0.30;;;;;;;;;;5093394;28;20028;-70
2022/04/07 13:02:49;;;;;;;0.38;0.38;;;;;;;;;;5093134;28;20104;-70
2022/04/07 13:05:28;;;;;;;0.43;0.40;;;;;;;;;;5091320;28;20111;-70
2022/04/07 13:07:55;;;;;;;0.20;0.20;;;;;;;;;;5091309;28;20036;-70
2022/04/07 13:10:22;;;;;;;0.20;0.20;;;;;;;;;;5091217;28;20028;-70
2022/04/07 13:12:48;;;;;;;0.22;0.22;;;;;;;;;;5091878;28;20016;-70
2022/04/07 13:15:14;;;;;;;0.20;0.20;;;;;;;;;;5092323;28;20027;-70
2022/04/07 13:17:40;;;;;;;0.30;0.30;;;;;;;;;;5091967;28;20024;-70
2022/04/07 13:20:07;;;;;;;0.20;0.20;;;;;;;;;;5073517;28;20373;-71
2022/04/07 13:22:33;;;;;;;2.92;0.38;;;;;;;;;;5091130;28;20047;-70
2022/04/07 13:24:59;;;;;;;0.40;0.40;;;;;;;;;;5090219;28;20035;-70
2022/04/07 13:27:27;;;;;;;0.30;0.30;;;;;;;;;;5092032;28;20024;-71
2022/04/07 13:29:54;;;;;;;0.20;0.20;;;;;;;;;;5091919;28;20119;-70
2022/04/07 13:32:24;;;;;;;0.30;0.30;;;;;;;;;;5091104;28;20276;-70
2022/04/07 13:34:51;;;;;;;0.20;0.20;;;;;;;;;;5091458;28;20032;-71
2022/04/07 13:37:17;;;;;;;0.20;0.20;;;;;;;;;;5089761;28;20085;-70
2022/04/07 13:39:43;;;;;;;1.80;0.30;;;;;;;;;;5090513;28;20039;-70
2022/04/07 13:42:09;;;;;;;1.35;0.30;;;;;;;;;;5091195;28;20070;-70
2022/04/07 13:44:35;;;;;;;0.30;0.30;;;;;;;;;;5091819;28;20024;-70
2022/04/07 13:47:01;;;;;;;0.57;0.40;;;;;;;;;;5091105;28;20128;-70
2022/04/07 13:49:27;;;;;;;0.35;0.35;;;;;;;;;;5092124;28;20123;-71
2022/04/07 13:51:56;;;;;;;0.30;0.30;;;;;;;;;;5091402;28;20024;-70
2022/04/07 13:54:22;;;;;;;0.40;0.40;;;;;;;;;;5091513;28;20013;-70
2022/04/07 13:56:48;;;;;;;0.40;0.40;;;;;;;;;;5090490;28;20127;-70
2022/04/07 13:59:14;;;;;;;0.63;0.32;;;;;;;;;;5091631;28;20318;-70
2022/04/07 14:01:40;;;;;;;0.20;0.20;;;;;;;;;;5090756;28;20116;-71
2022/04/07 14:04:06;;;;;;;0.20;0.20;;;;;;;;;;5090922;28;20134;-70
2022/04/07 14:06:32;;;;;;;0.20;0.20;;;;;;;;;;5091619;28;20032;-70
2022/04/07 14:08:58;;;;;;;0.20;0.20;;;;;;;;;;5090887;28;20031;-70
2022/04/07 14:11:25;;;;;;;0.28;0.28;;;;;;;;;;5088983;28;20145;-70
2022/04/07 14:13:52;;;;;;;0.30;0.30;;;;;;;;;;5090939;28;20028;-70
2022/04/07 14:16:21;;;;;;;0.50;0.50;;;;;;;;;;5091134;28;20508;-70
2022/04/07 14:18:47;;;;;;;0.65;0.22;;;;;;;;;;5091866;28;20035;-70
2022/04/07 14:21:14;;;;;;;0.45;0.45;;;;;;;;;;5090414;28;20478;-70
2022/04/07 14:23:40;;;;;;;2.20;1.40;;;;;;;;;;5091322;28;20031;-70
2022/04/07 14:26:06;;;;;;;0.30;0.30;;;;;;;;;;5089541;28;20024;-70
2022/04/07 14:28:32;;;;;;;0.30;0.30;;;;;;;;;;5090198;28;20435;-70
2022/04/07 14:30:58;;;;;;;0.20;0.20;;;;;;;;;;5089996;28;20042;-71
2022/04/07 14:33:24;;;;;;;0.30;0.30;;;;;;;;;;5089770;28;20469;-70
2022/04/07 14:35:51;;;;;;;0.30;0.30;;;;;;;;;;5089271;28;20517;-71
2022/04/07 14:38:17;;;;;;;0.65;0.65;;;;;;;;;;5076717;28;20028;-71
2022/04/07 14:40:44;;;;;;;0.35;0.35;;;;;;;;;;5077466;28;20028;-70
2022/04/07 14:43:11;;;;;;;0.45;0.45;;;;;;;;;;5090378;28;20032;-70
2022/04/07 14:45:38;;;;;;;2.45;0.55;;;;;;;;;;5082031;28;20050;-70
2022/04/07 14:48:07;;;;;;;0.30;0.30;;;;;;;;;;5088783;28;20489;-69